DLH6593 LZIB-LGAV
Flight info
| Callsign | DLH6593 |
|---|---|
| Flight time | N/A |
| Altitude | 38000 |
| Route | VAMOG DCT SIRDU DCT KOPRY/N0467F390 DCT BEVIS/N0469F380 DCT CRAYE/N0467F390 DCT NOSTO UN7 NEMES |
| Aircraft | A346/H-SDE2E3FGHIJ3J4J5M1RWXY/LB1D1 |
Departure
| Time | 2026-05-06 17:52 |
|---|---|
| Airport | M. R. Štefánik Airport (LZIB) |
Arrival
| Time | N/A |
|---|---|
| Airport | Athens Eleftherios Venizelos International Airport (LGAV) |
| Time | Latitude | Longitude | Altitude | Speed | Heading |
|---|---|---|---|---|---|
| 2026-05-06 17:21 | 48.16876 | 17.20066 | 440 ft | 0 kts | 314° |
| 2026-05-06 17:35 | 48.16875 | 17.20067 | 440 ft | 2 kts | 314° |
| 2026-05-06 17:35 | 48.16869 | 17.20076 | 425 ft | 4 kts | 273° |
| 2026-05-06 17:36 | 48.16860 | 17.20089 | 425 ft | 4 kts | 299° |
| 2026-05-06 17:36 | 48.16856 | 17.20114 | 430 ft | 4 kts | 259° |
| 2026-05-06 17:36 | 48.16865 | 17.20138 | 425 ft | 3 kts | 224° |
| 2026-05-06 17:36 | 48.16881 | 17.20161 | 425 ft | 4 kts | 224° |
| 2026-05-06 17:37 | 48.16885 | 17.20167 | 425 ft | 4 kts | 224° |
| 2026-05-06 17:37 | 48.16904 | 17.20195 | 425 ft | 4 kts | 224° |
| 2026-05-06 17:37 | 48.16919 | 17.20216 | 425 ft | 0 kts | 224° |
| 2026-05-06 17:41 | 48.16918 | 17.20215 | 440 ft | 1 kts | 224° |
| 2026-05-06 17:41 | 48.16906 | 17.20197 | 427 ft | 5 kts | 224° |
| 2026-05-06 17:41 | 48.16863 | 17.20162 | 434 ft | 8 kts | 159° |
| 2026-05-06 17:41 | 48.16801 | 17.20228 | 428 ft | 13 kts | 136° |
| 2026-05-06 17:42 | 48.16734 | 17.20323 | 428 ft | 8 kts | 136° |
| 2026-05-06 17:42 | 48.16713 | 17.20363 | 430 ft | 2 kts | 85° |
| 2026-05-06 17:42 | 48.16733 | 17.20401 | 425 ft | 7 kts | 50° |
| 2026-05-06 17:42 | 48.16774 | 17.20466 | 432 ft | 11 kts | 45° |
| 2026-05-06 17:43 | 48.16836 | 17.20558 | 428 ft | 13 kts | 45° |
| 2026-05-06 17:43 | 48.16894 | 17.20647 | 433 ft | 11 kts | 46° |
| 2026-05-06 17:43 | 48.16950 | 17.20738 | 426 ft | 12 kts | 47° |
| 2026-05-06 17:43 | 48.17003 | 17.20824 | 427 ft | 8 kts | 47° |
| 2026-05-06 17:44 | 48.17020 | 17.20849 | 431 ft | 0 kts | 33° |
| 2026-05-06 17:44 | 48.17021 | 17.20850 | 431 ft | 0 kts | 31° |
| 2026-05-06 17:45 | 48.17054 | 17.20823 | 427 ft | 10 kts | 314° |
| 2026-05-06 17:45 | 48.17093 | 17.20763 | 426 ft | 6 kts | 314° |
| 2026-05-06 17:45 | 48.17129 | 17.20705 | 425 ft | 11 kts | 314° |
| 2026-05-06 17:46 | 48.17199 | 17.20596 | 424 ft | 19 kts | 313° |
| 2026-05-06 17:46 | 48.17298 | 17.20440 | 426 ft | 21 kts | 313° |
| 2026-05-06 17:46 | 48.17356 | 17.20352 | 426 ft | 0 kts | 320° |
| 2026-05-06 17:47 | 48.17357 | 17.20352 | 426 ft | 0 kts | 320° |
| 2026-05-06 17:47 | 48.17357 | 17.20351 | 426 ft | 0 kts | 320° |
| 2026-05-06 17:50 | 48.17376 | 17.20329 | 426 ft | 11 kts | 326° |
| 2026-05-06 17:50 | 48.17443 | 17.20300 | 428 ft | 7 kts | 3° |
| 2026-05-06 17:50 | 48.17500 | 17.20331 | 431 ft | 11 kts | 33° |
| 2026-05-06 17:51 | 48.17533 | 17.20440 | 425 ft | 12 kts | 117° |
| 2026-05-06 17:51 | 48.17505 | 17.20501 | 429 ft | 0 kts | 132° |
| 2026-05-06 17:51 | 48.17505 | 17.20502 | 429 ft | 0 kts | 132° |
| 2026-05-06 17:52 | 48.17305 | 17.20811 | 427 ft | 86 kts | 135° |
| 2026-05-06 17:52 | 48.16690 | 17.21760 | 434 ft | 162 kts | 136° |
| 2026-05-06 17:52 | 48.15832 | 17.23056 | 1101 ft | 176 kts | 141° |
| 2026-05-06 17:52 | 48.14980 | 17.24350 | 2219 ft | 173 kts | 143° |
| 2026-05-06 17:53 | 48.14156 | 17.25604 | 3196 ft | 165 kts | 144° |
| 2026-05-06 17:53 | 48.13348 | 17.26855 | 3820 ft | 173 kts | 143° |
| 2026-05-06 17:53 | 48.12448 | 17.28183 | 4280 ft | 186 kts | 149° |
| 2026-05-06 17:53 | 48.11382 | 17.29406 | 4695 ft | 201 kts | 152° |
| 2026-05-06 17:54 | 48.10222 | 17.30684 | 5213 ft | 211 kts | 152° |
| 2026-05-06 17:54 | 48.09025 | 17.32015 | 5887 ft | 214 kts | 151° |
| 2026-05-06 17:54 | 48.07824 | 17.33362 | 6442 ft | 220 kts | 150° |
| 2026-05-06 17:54 | 48.06543 | 17.34800 | 6783 ft | 240 kts | 150° |
| 2026-05-06 17:55 | 48.05312 | 17.36184 | 7126 ft | 257 kts | 149° |
| 2026-05-06 17:55 | 48.04475 | 17.37129 | 7376 ft | 266 kts | 149° |
| 2026-05-06 17:55 | 48.03802 | 17.37893 | 7638 ft | 271 kts | 149° |
| 2026-05-06 17:55 | 48.02413 | 17.39476 | 8310 ft | 275 kts | 148° |
| 2026-05-06 17:56 | 48.00884 | 17.41222 | 9123 ft | 278 kts | 148° |
| 2026-05-06 17:56 | 47.99334 | 17.42989 | 9904 ft | 280 kts | 148° |
| 2026-05-06 17:56 | 47.97743 | 17.44800 | 10571 ft | 287 kts | 148° |
| 2026-05-06 17:56 | 47.96126 | 17.46631 | 10967 ft | 303 kts | 148° |
| 2026-05-06 17:57 | 47.94398 | 17.48588 | 11290 ft | 321 kts | 148° |
| 2026-05-06 17:57 | 47.92520 | 17.50709 | 11607 ft | 339 kts | 147° |
| 2026-05-06 17:57 | 47.90606 | 17.52875 | 12022 ft | 354 kts | 147° |
| 2026-05-06 17:57 | 47.88596 | 17.55148 | 12352 ft | 371 kts | 147° |
| 2026-05-06 17:58 | 47.86512 | 17.57503 | 12918 ft | 379 kts | 147° |
| 2026-05-06 17:58 | 47.84407 | 17.59881 | 13693 ft | 381 kts | 146° |
| 2026-05-06 17:58 | 47.82282 | 17.62261 | 14389 ft | 382 kts | 148° |